sensor_id;sensor_type;location;lat;lon;timestamp;temperature;humidity
22321;DHT22;11328;53.928;18.522;2022-07-25T17:54:07;30.20;75.70
22321;DHT22;11328;53.928;18.522;2022-07-25T17:56:35;30.10;76.10
22321;DHT22;11328;53.928;18.522;2022-07-25T17:59:03;30.10;76.50
22321;DHT22;11328;53.928;18.522;2022-07-25T18:01:31;30.10;76.10
22321;DHT22;11328;53.928;18.522;2022-07-25T18:03:58;30.00;76.20
22321;DHT22;11328;53.928;18.522;2022-07-25T18:06:25;30.00;76.30
22321;DHT22;11328;53.928;18.522;2022-07-25T18:08:56;29.90;76.70
22321;DHT22;11328;53.928;18.522;2022-07-25T18:11:23;29.90;76.70
22321;DHT22;11328;53.928;18.522;2022-07-25T18:13:50;29.90;77.10
22321;DHT22;11328;53.928;18.522;2022-07-25T18:16:17;29.80;77.40
22321;DHT22;11328;53.928;18.522;2022-07-25T18:18:44;29.70;77.60
22321;DHT22;11328;53.928;18.522;2022-07-25T18:21:11;29.60;77.70
22321;DHT22;11328;53.928;18.522;2022-07-25T18:23:39;29.60;78.00
22321;DHT22;11328;53.928;18.522;2022-07-25T18:26:06;29.50;78.10
22321;DHT22;11328;53.928;18.522;2022-07-25T18:28:35;29.40;78.30
22321;DHT22;11328;53.928;18.522;2022-07-25T18:31:02;29.40;78.60
22321;DHT22;11328;53.928;18.522;2022-07-25T18:33:30;29.30;78.80
22321;DHT22;11328;53.928;18.522;2022-07-25T18:35:57;29.30;79.10
22321;DHT22;11328;53.928;18.522;2022-07-25T18:38:30;29.20;79.10
22321;DHT22;11328;53.928;18.522;2022-07-25T18:40:57;29.10;79.60
22321;DHT22;11328;53.928;18.522;2022-07-25T18:43:44;29.00;79.40
22321;DHT22;11328;53.928;18.522;2022-07-25T18:46:14;28.90;79.90
22321;DHT22;11328;53.928;18.522;2022-07-25T18:48:42;28.90;80.20
22321;DHT22;11328;53.928;18.522;2022-07-25T18:51:10;28.80;80.30
22321;DHT22;11328;53.928;18.522;2022-07-25T18:53:37;28.70;80.50
22321;DHT22;11328;53.928;18.522;2022-07-25T18:56:05;28.60;80.90
22321;DHT22;11328;53.928;18.522;2022-07-25T18:58:32;28.50;81.10
22321;DHT22;11328;53.928;18.522;2022-07-25T19:00:59;28.40;81.20
22321;DHT22;11328;53.928;18.522;2022-07-25T19:03:28;28.30;81.90
22321;DHT22;11328;53.928;18.522;2022-07-25T19:05:58;28.30;82.10
22321;DHT22;11328;53.928;18.522;2022-07-25T19:08:29;28.20;81.90
22321;DHT22;11328;53.928;18.522;2022-07-25T19:10:56;28.20;82.10
22321;DHT22;11328;53.928;18.522;2022-07-25T19:13:23;28.00;82.50
22321;DHT22;11328;53.928;18.522;2022-07-25T19:16:10;28.00;82.30
22321;DHT22;11328;53.928;18.522;2022-07-25T19:18:38;27.90;82.60
22321;DHT22;11328;53.928;18.522;2022-07-25T19:21:06;27.80;82.50
22321;DHT22;11328;53.928;18.522;2022-07-25T19:23:33;27.70;82.80
22321;DHT22;11328;53.928;18.522;2022-07-25T19:26:00;27.60;83.10
22321;DHT22;11328;53.928;18.522;2022-07-25T19:28:28;27.50;83.30
22321;DHT22;11328;53.928;18.522;2022-07-25T19:30:55;27.40;83.50
22321;DHT22;11328;53.928;18.522;2022-07-25T19:33:23;27.30;84.00
22321;DHT22;11328;53.928;18.522;2022-07-25T19:35:50;27.20;84.30
22321;DHT22;11328;53.928;18.522;2022-07-25T19:38:18;27.10;84.40
22321;DHT22;11328;53.928;18.522;2022-07-25T19:40:45;27.10;84.60
22321;DHT22;11328;53.928;18.522;2022-07-25T19:43:13;27.00;84.80
22321;DHT22;11328;53.928;18.522;2022-07-25T19:45:40;26.90;85.20
22321;DHT22;11328;53.928;18.522;2022-07-25T19:48:08;26.80;85.30
22321;DHT22;11328;53.928;18.522;2022-07-25T19:50:35;26.70;85.70
22321;DHT22;11328;53.928;18.522;2022-07-25T19:53:02;26.60;85.60
22321;DHT22;11328;53.928;18.522;2022-07-25T19:55:29;26.60;85.90
22321;DHT22;11328;53.928;18.522;2022-07-25T19:57:56;26.50;85.80
22321;DHT22;11328;53.928;18.522;2022-07-25T20:00:24;26.50;86.10
22321;DHT22;11328;53.928;18.522;2022-07-25T20:02:51;26.40;86.30
22321;DHT22;11328;53.928;18.522;2022-07-25T20:05:19;26.30;86.40
22321;DHT22;11328;53.928;18.522;2022-07-25T20:07:46;26.20;86.70
22321;DHT22;11328;53.928;18.522;2022-07-25T20:10:13;26.20;87.00
22321;DHT22;11328;53.928;18.522;2022-07-25T20:12:43;26.10;87.30
22321;DHT22;11328;53.928;18.522;2022-07-25T20:15:10;26.10;87.40
22321;DHT22;11328;53.928;18.522;2022-07-25T20:17:38;26.10;87.40
22321;DHT22;11328;53.928;18.522;2022-07-25T20:20:06;26.10;87.90
22321;DHT22;11328;53.928;18.522;2022-07-25T20:22:35;26.00;88.30
22321;DHT22;11328;53.928;18.522;2022-07-25T20:25:06;25.90;88.60
22321;DHT22;11328;53.928;18.522;2022-07-25T20:27:34;25.90;88.90
22321;DHT22;11328;53.928;18.522;2022-07-25T20:30:03;25.80;89.00
22321;DHT22;11328;53.928;18.522;2022-07-25T20:32:32;25.80;89.30
22321;DHT22;11328;53.928;18.522;2022-07-25T20:35:00;25.80;89.60
22321;DHT22;11328;53.928;18.522;2022-07-25T20:37:27;25.70;89.60
22321;DHT22;11328;53.928;18.522;2022-07-25T20:39:54;25.70;89.80
22321;DHT22;11328;53.928;18.522;2022-07-25T20:42:22;25.70;90.00
22321;DHT22;11328;53.928;18.522;2022-07-25T20:44:49;25.60;90.10
22321;DHT22;11328;53.928;18.522;2022-07-25T20:47:16;25.60;90.20
22321;DHT22;11328;53.928;18.522;2022-07-25T20:49:43;25.60;90.30
22321;DHT22;11328;53.928;18.522;2022-07-25T20:52:10;25.50;90.50
22321;DHT22;11328;53.928;18.522;2022-07-25T20:54:37;25.40;90.50
22321;DHT22;11328;53.928;18.522;2022-07-25T20:57:05;25.40;90.60
22321;DHT22;11328;53.928;18.522;2022-07-25T20:59:32;25.30;90.70
22321;DHT22;11328;53.928;18.522;2022-07-25T21:01:59;25.30;90.80
22321;DHT22;11328;53.928;18.522;2022-07-25T21:04:26;25.20;91.30
22321;DHT22;11328;53.928;18.522;2022-07-25T21:06:53;25.10;91.10
22321;DHT22;11328;53.928;18.522;2022-07-25T21:09:22;25.10;91.20
22321;DHT22;11328;53.928;18.522;2022-07-25T21:11:49;25.10;91.20
22321;DHT22;11328;53.928;18.522;2022-07-25T21:14:16;25.00;91.30
22321;DHT22;11328;53.928;18.522;2022-07-25T21:16:44;25.00;91.40
22321;DHT22;11328;53.928;18.522;2022-07-25T21:19:11;25.00;91.50
22321;DHT22;11328;53.928;18.522;2022-07-25T21:21:38;24.90;91.70
22321;DHT22;11328;53.928;18.522;2022-07-25T21:24:06;24.80;91.90
22321;DHT22;11328;53.928;18.522;2022-07-25T21:26:38;24.80;92.00
22321;DHT22;11328;53.928;18.522;2022-07-25T21:29:08;24.70;92.10
22321;DHT22;11328;53.928;18.522;2022-07-25T21:31:39;24.60;92.40
22321;DHT22;11328;53.928;18.522;2022-07-25T21:34:11;24.50;92.60
22321;DHT22;11328;53.928;18.522;2022-07-25T21:36:43;24.50;92.90
22321;DHT22;11328;53.928;18.522;2022-07-25T21:39:15;24.40;93.10
22321;DHT22;11328;53.928;18.522;2022-07-25T21:41:48;24.40;93.20
22321;DHT22;11328;53.928;18.522;2022-07-25T21:44:21;24.30;93.30
22321;DHT22;11328;53.928;18.522;2022-07-25T21:46:52;24.30;93.50
22321;DHT22;11328;53.928;18.522;2022-07-25T21:49:22;24.20;93.70
22321;DHT22;11328;53.928;18.522;2022-07-25T21:52:11;24.10;93.80
22321;DHT22;11328;53.928;18.522;2022-07-25T21:54:42;24.00;93.90
22321;DHT22;11328;53.928;18.522;2022-07-25T21:57:16;24.00;94.10
22321;DHT22;11328;53.928;18.522;2022-07-25T21:59:44;24.00;94.30
22321;DHT22;11328;53.928;18.522;2022-07-25T22:02:20;23.90;94.40
22321;DHT22;11328;53.928;18.522;2022-07-25T22:04:49;23.80;94.60
22321;DHT22;11328;53.928;18.522;2022-07-25T22:07:17;23.80;94.90
22321;DHT22;11328;53.928;18.522;2022-07-25T22:09:48;23.70;94.90
22321;DHT22;11328;53.928;18.522;2022-07-25T22:12:15;23.70;95.10
22321;DHT22;11328;53.928;18.522;2022-07-25T22:14:53;23.60;95.20
22321;DHT22;11328;53.928;18.522;2022-07-25T22:17:24;23.60;95.30
22321;DHT22;11328;53.928;18.522;2022-07-25T22:20:14;23.60;95.50
22321;DHT22;11328;53.928;18.522;2022-07-25T22:22:41;23.60;95.80
22321;DHT22;11328;53.928;18.522;2022-07-25T22:25:08;23.50;95.70
22321;DHT22;11328;53.928;18.522;2022-07-25T22:27:36;23.50;95.90
22321;DHT22;11328;53.928;18.522;2022-07-25T22:30:06;23.50;96.00
22321;DHT22;11328;53.928;18.522;2022-07-25T22:32:46;23.40;96.20
22321;DHT22;11328;53.928;18.522;2022-07-25T22:35:14;23.40;96.40
22321;DHT22;11328;53.928;18.522;2022-07-25T22:37:43;23.40;96.50
22321;DHT22;11328;53.928;18.522;2022-07-25T22:40:13;23.40;96.60
22321;DHT22;11328;53.928;18.522;2022-07-25T22:42:41;23.40;96.80
22321;DHT22;11328;53.928;18.522;2022-07-25T22:45:09;23.30;96.80
22321;DHT22;11328;53.928;18.522;2022-07-25T22:47:40;23.30;97.00
22321;DHT22;11328;53.928;18.522;2022-07-25T22:50:11;23.30;97.10
22321;DHT22;11328;53.928;18.522;2022-07-25T22:52:41;23.30;97.20
22321;DHT22;11328;53.928;18.522;2022-07-25T22:55:12;23.30;97.30
22321;DHT22;11328;53.928;18.522;2022-07-25T22:57:41;23.30;97.50
22321;DHT22;11328;53.928;18.522;2022-07-25T23:00:09;23.40;97.80
22321;DHT22;11328;53.928;18.522;2022-07-25T23:02:45;23.30;97.60
22321;DHT22;11328;53.928;18.522;2022-07-25T23:05:13;23.40;97.60
22321;DHT22;11328;53.928;18.522;2022-07-25T23:07:42;23.40;97.50
22321;DHT22;11328;53.928;18.522;2022-07-25T23:10:17;23.40;97.60
22321;DHT22;11328;53.928;18.522;2022-07-25T23:12:44;23.40;97.60
22321;DHT22;11328;53.928;18.522;2022-07-25T23:15:14;23.40;97.60
22321;DHT22;11328;53.928;18.522;2022-07-25T23:17:41;23.40;97.70
22321;DHT22;11328;53.928;18.522;2022-07-25T23:20:09;23.40;97.90
22321;DHT22;11328;53.928;18.522;2022-07-25T23:22:37;23.40;98.00
22321;DHT22;11328;53.928;18.522;2022-07-25T23:25:04;23.40;98.20
22321;DHT22;11328;53.928;18.522;2022-07-25T23:27:32;23.30;98.40
22321;DHT22;11328;53.928;18.522;2022-07-25T23:30:04;23.40;98.40
22321;DHT22;11328;53.928;18.522;2022-07-25T23:32:33;23.40;98.20
22321;DHT22;11328;53.928;18.522;2022-07-25T23:35:00;23.30;98.40
22321;DHT22;11328;53.928;18.522;2022-07-25T23:37:27;23.40;98.20
22321;DHT22;11328;53.928;18.522;2022-07-25T23:40:12;23.40;98.00
22321;DHT22;11328;53.928;18.522;2022-07-25T23:42:39;23.50;98.00
22321;DHT22;11328;53.928;18.522;2022-07-25T23:45:07;23.50;97.90
22321;DHT22;11328;53.928;18.522;2022-07-25T23:47:53;23.50;97.90
22321;DHT22;11328;53.928;18.522;2022-07-25T23:50:21;23.60;97.80
22321;DHT22;11328;53.928;18.522;2022-07-25T23:52:49;23.50;97.80
22321;DHT22;11328;53.928;18.522;2022-07-25T23:55:17;23.50;97.80
22321;DHT22;11328;53.928;18.522;2022-07-25T23:57:44;23.50;97.80
